sensor_id;sensor_type;location;lat;lon;timestamp;temperature;humidity
70170;DHT22;57543;45.442;9.212;2024-01-30T00:00:12;3.08;86.81
70170;DHT22;57543;45.442;9.212;2024-01-30T00:03:15;3.30;87.35
70170;DHT22;57543;45.442;9.212;2024-01-30T00:06:19;3.46;87.09
70170;DHT22;57543;45.442;9.212;2024-01-30T00:09:24;3.50;86.52
70170;DHT22;57543;45.442;9.212;2024-01-30T00:12:30;3.36;86.52
70170;DHT22;57543;45.442;9.212;2024-01-30T00:15:35;3.33;86.53
70170;DHT22;57543;45.442;9.212;2024-01-30T00:18:42;3.27;86.56
70170;DHT22;57543;45.442;9.212;2024-01-30T00:21:46;3.27;86.53
70170;DHT22;57543;45.442;9.212;2024-01-30T00:24:49;3.34;86.58
70170;DHT22;57543;45.442;9.212;2024-01-30T00:27:53;3.47;86.57
70170;DHT22;57543;45.442;9.212;2024-01-30T00:30:56;3.46;86.53
70170;DHT22;57543;45.442;9.212;2024-01-30T00:34:00;3.50;86.54
70170;DHT22;57543;45.442;9.212;2024-01-30T00:37:04;3.46;86.59
70170;DHT22;57543;45.442;9.212;2024-01-30T00:40:07;3.41;86.31
70170;DHT22;57543;45.442;9.212;2024-01-30T00:43:13;3.33;86.55
70170;DHT22;57543;45.442;9.212;2024-01-30T00:46:17;3.27;86.90
70170;DHT22;57543;45.442;9.212;2024-01-30T00:49:20;3.30;87.07
70170;DHT22;57543;45.442;9.212;2024-01-30T00:52:24;3.30;87.04
70170;DHT22;57543;45.442;9.212;2024-01-30T00:55:27;3.29;87.07
70170;DHT22;57543;45.442;9.212;2024-01-30T00:58:31;3.18;86.73
70170;DHT22;57543;45.442;9.212;2024-01-30T01:01:35;3.05;87.09
70170;DHT22;57543;45.442;9.212;2024-01-30T01:04:39;3.09;87.46
70170;DHT22;57543;45.442;9.212;2024-01-30T01:07:43;3.15;87.56
70170;DHT22;57543;45.442;9.212;2024-01-30T01:10:49;3.27;87.56
70170;DHT22;57543;45.442;9.212;2024-01-30T01:13:52;3.37;87.37
70170;DHT22;57543;45.442;9.212;2024-01-30T01:16:59;3.36;87.08
70170;DHT22;57543;45.442;9.212;2024-01-30T01:20:07;3.39;86.92
70170;DHT22;57543;45.442;9.212;2024-01-30T01:23:10;3.29;86.59
70170;DHT22;57543;45.442;9.212;2024-01-30T01:26:14;3.27;86.81
70170;DHT22;57543;45.442;9.212;2024-01-30T01:29:17;3.18;86.60
70170;DHT22;57543;45.442;9.212;2024-01-30T01:32:22;3.19;86.89
70170;DHT22;57543;45.442;9.212;2024-01-30T01:35:25;3.12;86.81
70170;DHT22;57543;45.442;9.212;2024-01-30T01:38:30;2.88;87.35
70170;DHT22;57543;45.442;9.212;2024-01-30T01:41:36;2.92;87.89
70170;DHT22;57543;45.442;9.212;2024-01-30T01:44:40;2.95;88.01
70170;DHT22;57543;45.442;9.212;2024-01-30T01:47:44;2.98;88.24
70170;DHT22;57543;45.442;9.212;2024-01-30T01:50:49;3.06;88.39
70170;DHT22;57543;45.442;9.212;2024-01-30T01:53:54;3.13;88.25
70170;DHT22;57543;45.442;9.212;2024-01-30T01:56:59;3.26;88.20
70170;DHT22;57543;45.442;9.212;2024-01-30T02:00:03;3.33;87.82
70170;DHT22;57543;45.442;9.212;2024-01-30T02:03:13;3.33;87.58
70170;DHT22;57543;45.442;9.212;2024-01-30T02:06:17;3.43;87.44
70170;DHT22;57543;45.442;9.212;2024-01-30T02:09:20;3.33;87.14
70170;DHT22;57543;45.442;9.212;2024-01-30T02:12:24;3.08;86.48
70170;DHT22;57543;45.442;9.212;2024-01-30T02:15:28;3.13;87.16
70170;DHT22;57543;45.442;9.212;2024-01-30T02:18:32;3.20;87.25
70170;DHT22;57543;45.442;9.212;2024-01-30T02:21:54;3.34;87.19
70170;DHT22;57543;45.442;9.212;2024-01-30T02:24:58;3.39;86.88
70170;DHT22;57543;45.442;9.212;2024-01-30T02:28:01;3.43;86.75
70170;DHT22;57543;45.442;9.212;2024-01-30T02:31:05;3.41;86.57
70170;DHT22;57543;45.442;9.212;2024-01-30T02:34:09;3.40;86.47
70170;DHT22;57543;45.442;9.212;2024-01-30T02:37:12;3.24;86.13
70170;DHT22;57543;45.442;9.212;2024-01-30T02:40:16;3.29;86.54
70170;DHT22;57543;45.442;9.212;2024-01-30T02:43:20;3.27;86.61
70170;DHT22;57543;45.442;9.212;2024-01-30T02:46:23;3.36;86.50
70170;DHT22;57543;45.442;9.212;2024-01-30T02:49:27;3.39;86.42
70170;DHT22;57543;45.442;9.212;2024-01-30T02:52:31;3.41;86.24
70170;DHT22;57543;45.442;9.212;2024-01-30T02:55:35;3.30;85.91
70170;DHT22;57543;45.442;9.212;2024-01-30T02:58:39;3.36;86.02
70170;DHT22;57543;45.442;9.212;2024-01-30T03:01:43;3.29;85.90
70170;DHT22;57543;45.442;9.212;2024-01-30T03:04:47;3.33;86.19
70170;DHT22;57543;45.442;9.212;2024-01-30T03:07:51;3.40;86.00
70170;DHT22;57543;45.442;9.212;2024-01-30T03:10:57;3.39;86.01
70170;DHT22;57543;45.442;9.212;2024-01-30T03:14:00;3.36;86.02
70170;DHT22;57543;45.442;9.212;2024-01-30T03:17:04;3.18;85.80
70170;DHT22;57543;45.442;9.212;2024-01-30T03:20:08;3.13;86.01
70170;DHT22;57543;45.442;9.212;2024-01-30T03:23:12;3.16;86.17
70170;DHT22;57543;45.442;9.212;2024-01-30T03:26:15;3.18;86.16
70170;DHT22;57543;45.442;9.212;2024-01-30T03:29:19;3.01;86.02
70170;DHT22;57543;45.442;9.212;2024-01-30T03:32:22;2.98;86.32
70170;DHT22;57543;45.442;9.212;2024-01-30T03:35:26;3.02;86.53
70170;DHT22;57543;45.442;9.212;2024-01-30T03:38:29;3.02;86.62
70170;DHT22;57543;45.442;9.212;2024-01-30T03:41:33;3.06;86.68
70170;DHT22;57543;45.442;9.212;2024-01-30T03:44:36;3.11;86.59
70170;DHT22;57543;45.442;9.212;2024-01-30T03:47:43;3.06;86.45
70170;DHT22;57543;45.442;9.212;2024-01-30T03:50:47;3.13;86.48
70170;DHT22;57543;45.442;9.212;2024-01-30T03:53:50;3.24;86.24
70170;DHT22;57543;45.442;9.212;2024-01-30T03:56:57;3.22;86.04
70170;DHT22;57543;45.442;9.212;2024-01-30T04:00:01;3.26;85.87
70170;DHT22;57543;45.442;9.212;2024-01-30T04:03:05;3.18;85.74
70170;DHT22;57543;45.442;9.212;2024-01-30T04:06:11;3.12;85.61
70170;DHT22;57543;45.442;9.212;2024-01-30T04:09:15;2.91;85.51
70170;DHT22;57543;45.442;9.212;2024-01-30T04:12:19;2.78;85.61
70170;DHT22;57543;45.442;9.212;2024-01-30T04:15:26;2.74;85.62
70170;DHT22;57543;45.442;9.212;2024-01-30T04:18:29;2.57;85.76
70170;DHT22;57543;45.442;9.212;2024-01-30T04:21:33;2.57;85.99
70170;DHT22;57543;45.442;9.212;2024-01-30T04:24:37;2.54;86.00
70170;DHT22;57543;45.442;9.212;2024-01-30T04:27:40;2.60;86.13
70170;DHT22;57543;45.442;9.212;2024-01-30T04:30:44;2.61;85.79
70170;DHT22;57543;45.442;9.212;2024-01-30T04:33:48;2.64;85.84
70170;DHT22;57543;45.442;9.212;2024-01-30T04:36:51;2.67;85.56
70170;DHT22;57543;45.442;9.212;2024-01-30T04:39:54;2.68;85.38
70170;DHT22;57543;45.442;9.212;2024-01-30T04:42:58;2.70;85.44
70170;DHT22;57543;45.442;9.212;2024-01-30T04:46:02;2.75;85.17
70170;DHT22;57543;45.442;9.212;2024-01-30T04:49:06;2.70;84.89
70170;DHT22;57543;45.442;9.212;2024-01-30T04:52:12;2.73;84.76
70170;DHT22;57543;45.442;9.212;2024-01-30T04:55:16;2.81;84.54
70170;DHT22;57543;45.442;9.212;2024-01-30T04:58:19;2.80;84.24
70170;DHT22;57543;45.442;9.212;2024-01-30T05:01:22;2.83;83.93
70170;DHT22;57543;45.442;9.212;2024-01-30T05:04:26;2.74;83.68
70170;DHT22;57543;45.442;9.212;2024-01-30T05:07:29;2.78;83.63
70170;DHT22;57543;45.442;9.212;2024-01-30T05:10:34;2.73;83.23
70170;DHT22;57543;45.442;9.212;2024-01-30T05:13:37;2.73;83.01
70170;DHT22;57543;45.442;9.212;2024-01-30T05:16:40;2.67;82.99
70170;DHT22;57543;45.442;9.212;2024-01-30T05:19:44;2.74;82.72
70170;DHT22;57543;45.442;9.212;2024-01-30T05:22:48;2.51;82.17
70170;DHT22;57543;45.442;9.212;2024-01-30T05:25:51;2.47;82.59
70170;DHT22;57543;45.442;9.212;2024-01-30T05:28:55;2.50;82.64
70170;DHT22;57543;45.442;9.212;2024-01-30T05:31:58;2.53;82.73
70170;DHT22;57543;45.442;9.212;2024-01-30T05:35:02;2.51;82.54
70170;DHT22;57543;45.442;9.212;2024-01-30T05:38:06;2.53;82.34
70170;DHT22;57543;45.442;9.212;2024-01-30T05:41:10;2.37;82.28
70170;DHT22;57543;45.442;9.212;2024-01-30T05:44:14;2.40;82.56
70170;DHT22;57543;45.442;9.212;2024-01-30T05:47:18;2.43;82.56
70170;DHT22;57543;45.442;9.212;2024-01-30T05:50:23;2.44;82.65
70170;DHT22;57543;45.442;9.212;2024-01-30T05:53:28;2.46;82.50
70170;DHT22;57543;45.442;9.212;2024-01-30T05:56:32;2.50;82.51
70170;DHT22;57543;45.442;9.212;2024-01-30T05:59:35;2.53;82.33
70170;DHT22;57543;45.442;9.212;2024-01-30T06:02:39;2.51;82.29
70170;DHT22;57543;45.442;9.212;2024-01-30T06:05:43;2.06;82.35
70170;DHT22;57543;45.442;9.212;2024-01-30T06:08:47;2.26;82.94
70170;DHT22;57543;45.442;9.212;2024-01-30T06:11:50;2.01;83.80
70170;DHT22;57543;45.442;9.212;2024-01-30T06:14:54;2.18;83.70
70170;DHT22;57543;45.442;9.212;2024-01-30T06:18:03;2.16;83.41
70170;DHT22;57543;45.442;9.212;2024-01-30T06:21:06;2.32;83.42
70170;DHT22;57543;45.442;9.212;2024-01-30T06:24:10;2.18;83.52
70170;DHT22;57543;45.442;9.212;2024-01-30T06:27:14;2.12;83.59
70170;DHT22;57543;45.442;9.212;2024-01-30T06:30:18;2.26;83.57
70170;DHT22;57543;45.442;9.212;2024-01-30T06:33:21;2.26;83.27
70170;DHT22;57543;45.442;9.212;2024-01-30T06:36:26;2.21;83.02
70170;DHT22;57543;45.442;9.212;2024-01-30T06:39:29;2.19;82.92
70170;DHT22;57543;45.442;9.212;2024-01-30T06:42:33;2.32;82.99
70170;DHT22;57543;45.442;9.212;2024-01-30T06:45:36;2.23;82.37
70170;DHT22;57543;45.442;9.212;2024-01-30T06:48:41;2.19;82.70
70170;DHT22;57543;45.442;9.212;2024-01-30T06:51:47;2.25;82.32
70170;DHT22;57543;45.442;9.212;2024-01-30T06:54:53;2.19;82.46
70170;DHT22;57543;45.442;9.212;2024-01-30T06:57:57;2.11;82.35
70170;DHT22;57543;45.442;9.212;2024-01-30T07:01:01;2.13;82.35
70170;DHT22;57543;45.442;9.212;2024-01-30T07:04:05;2.18;82.35
70170;DHT22;57543;45.442;9.212;2024-01-30T07:07:09;2.18;82.33
70170;DHT22;57543;45.442;9.212;2024-01-30T07:10:16;2.21;82.39
70170;DHT22;57543;45.442;9.212;2024-01-30T07:13:19;2.01;81.74
70170;DHT22;57543;45.442;9.212;2024-01-30T07:16:22;2.01;82.54
70170;DHT22;57543;45.442;9.212;2024-01-30T07:19:26;1.93;82.31
70170;DHT22;57543;45.442;9.212;2024-01-30T07:22:30;1.91;83.07
70170;DHT22;57543;45.442;9.212;2024-01-30T07:25:34;1.85;83.00
70170;DHT22;57543;45.442;9.212;2024-01-30T07:28:39;2.02;83.05
70170;DHT22;57543;45.442;9.212;2024-01-30T07:31:43;2.09;82.87
70170;DHT22;57543;45.442;9.212;2024-01-30T07:34:46;2.11;81.90
70170;DHT22;57543;45.442;9.212;2024-01-30T07:37:50;1.97;82.00
70170;DHT22;57543;45.442;9.212;2024-01-30T07:40:54;1.87;82.55
70170;DHT22;57543;45.442;9.212;2024-01-30T07:43:57;1.94;82.39
70170;DHT22;57543;45.442;9.212;2024-01-30T07:47:02;1.68;83.39
70170;DHT22;57543;45.442;9.212;2024-01-30T07:50:08;1.70;83.30
70170;DHT22;57543;45.442;9.212;2024-01-30T07:53:12;1.78;83.29
70170;DHT22;57543;45.442;9.212;2024-01-30T07:56:17;1.94;83.11
70170;DHT22;57543;45.442;9.212;2024-01-30T07:59:20;1.77;82.84
70170;DHT22;57543;45.442;9.212;2024-01-30T08:02:28;2.12;82.69
70170;DHT22;57543;45.442;9.212;2024-01-30T08:05:31;2.43;81.97
70170;DHT22;57543;45.442;9.212;2024-01-30T08:08:35;2.65;81.12
70170;DHT22;57543;45.442;9.212;2024-01-30T08:11:39;2.89;79.91
70170;DHT22;57543;45.442;9.212;2024-01-30T08:14:43;2.87;79.80
70170;DHT22;57543;45.442;9.212;2024-01-30T08:17:46;3.13;79.12
70170;DHT22;57543;45.442;9.212;2024-01-30T08:20:50;3.39;77.58
70170;DHT22;57543;45.442;9.212;2024-01-30T08:23:53;3.57;77.49
70170;DHT22;57543;45.442;9.212;2024-01-30T08:26:57;3.58;77.67
70170;DHT22;57543;45.442;9.212;2024-01-30T08:30:02;4.20;76.46
70170;DHT22;57543;45.442;9.212;2024-01-30T08:33:09;5.03;73.88
70170;DHT22;57543;45.442;9.212;2024-01-30T08:36:13;5.99;69.53
70170;DHT22;57543;45.442;9.212;2024-01-30T08:39:16;7.75;64.66
70170;DHT22;57543;45.442;9.212;2024-01-30T08:42:19;9.24;60.52
70170;DHT22;57543;45.442;9.212;2024-01-30T08:45:25;9.72;58.44
70170;DHT22;57543;45.442;9.212;2024-01-30T08:48:29;10.83;55.11
70170;DHT22;57543;45.442;9.212;2024-01-30T08:51:32;11.82;52.31
70170;DHT22;57543;45.442;9.212;2024-01-30T08:54:37;12.16;50.74
70170;DHT22;57543;45.442;9.212;2024-01-30T08:57:41;12.16;49.78
70170;DHT22;57543;45.442;9.212;2024-01-30T09:00:45;13.00;49.19
70170;DHT22;57543;45.442;9.212;2024-01-30T09:03:48;13.56;47.43
70170;DHT22;57543;45.442;9.212;2024-01-30T09:06:51;14.24;45.92
70170;DHT22;57543;45.442;9.212;2024-01-30T09:09:55;14.69;44.86
70170;DHT22;57543;45.442;9.212;2024-01-30T09:12:58;14.46;45.21
70170;DHT22;57543;45.442;9.212;2024-01-30T09:16:02;14.42;45.49
70170;DHT22;57543;45.442;9.212;2024-01-30T09:19:06;14.15;45.92
70170;DHT22;57543;45.442;9.212;2024-01-30T09:22:09;13.70;46.69
70170;DHT22;57543;45.442;9.212;2024-01-30T09:25:13;12.93;48.46
70170;DHT22;57543;45.442;9.212;2024-01-30T09:28:17;12.35;50.08
70170;DHT22;57543;45.442;9.212;2024-01-30T09:31:21;11.89;51.32
70170;DHT22;57543;45.442;9.212;2024-01-30T09:34:24;11.20;53.23
70170;DHT22;57543;45.442;9.212;2024-01-30T09:37:28;10.73;54.34
70170;DHT22;57543;45.442;9.212;2024-01-30T09:40:32;10.07;56.06
70170;DHT22;57543;45.442;9.212;2024-01-30T09:43:37;9.34;58.41
70170;DHT22;57543;45.442;9.212;2024-01-30T09:46:42;8.61;59.54
70170;DHT22;57543;45.442;9.212;2024-01-30T09:49:49;8.30;61.58
70170;DHT22;57543;45.442;9.212;2024-01-30T09:52:55;8.27;61.81
70170;DHT22;57543;45.442;9.212;2024-01-30T09:56:02;8.14;62.11
70170;DHT22;57543;45.442;9.212;2024-01-30T09:59:06;8.06;62.44
70170;DHT22;57543;45.442;9.212;2024-01-30T10:02:10;7.75;62.84
70170;DHT22;57543;45.442;9.212;2024-01-30T10:05:15;7.69;64.21
70170;DHT22;57543;45.442;9.212;2024-01-30T10:08:22;7.66;63.87
70170;DHT22;57543;45.442;9.212;2024-01-30T10:11:27;7.44;65.15
70170;DHT22;57543;45.442;9.212;2024-01-30T10:14:33;7.23;65.70
70170;DHT22;57543;45.442;9.212;2024-01-30T10:17:37;7.41;65.08
70170;DHT22;57543;45.442;9.212;2024-01-30T10:20:44;7.43;65.22
70170;DHT22;57543;45.442;9.212;2024-01-30T10:23:48;7.72;65.13
70170;DHT22;57543;45.442;9.212;2024-01-30T10:26:53;7.72;64.92
70170;DHT22;57543;45.442;9.212;2024-01-30T10:29:59;8.16;64.28
70170;DHT22;57543;45.442;9.212;2024-01-30T10:33:08;8.53;63.20
70170;DHT22;57543;45.442;9.212;2024-01-30T10:36:13;8.75;61.68
70170;DHT22;57543;45.442;9.212;2024-01-30T10:39:19;8.83;62.50
70170;DHT22;57543;45.442;9.212;2024-01-30T10:42:26;9.10;61.47
70170;DHT22;57543;45.442;9.212;2024-01-30T10:45:30;9.35;60.99
70170;DHT22;57543;45.442;9.212;2024-01-30T10:48:36;9.56;60.02
70170;DHT22;57543;45.442;9.212;2024-01-30T10:51:46;9.60;59.76
70170;DHT22;57543;45.442;9.212;2024-01-30T10:54:51;9.93;59.48
70170;DHT22;57543;45.442;9.212;2024-01-30T10:57:56;9.41;61.41
70170;DHT22;57543;45.442;9.212;2024-01-30T11:00:59;9.90;59.35
70170;DHT22;57543;45.442;9.212;2024-01-30T11:04:04;10.25;58.73
70170;DHT22;57543;45.442;9.212;2024-01-30T11:07:24;10.56;58.19
70170;DHT22;57543;45.442;9.212;2024-01-30T11:10:28;10.90;57.28
70170;DHT22;57543;45.442;9.212;2024-01-30T11:13:32;11.10;56.48
70170;DHT22;57543;45.442;9.212;2024-01-30T11:16:39;11.27;56.02
70170;DHT22;57543;45.442;9.212;2024-01-30T11:19:43;11.61;55.47
70170;DHT22;57543;45.442;9.212;2024-01-30T11:22:47;11.91;54.76
70170;DHT22;57543;45.442;9.212;2024-01-30T11:25:52;12.27;54.69
70170;DHT22;57543;45.442;9.212;2024-01-30T11:28:56;12.52;53.78
70170;DHT22;57543;45.442;9.212;2024-01-30T11:32:00;12.73;53.88
70170;DHT22;57543;45.442;9.212;2024-01-30T11:35:06;12.69;52.56
70170;DHT22;57543;45.442;9.212;2024-01-30T11:38:12;13.08;52.57
70170;DHT22;57543;45.442;9.212;2024-01-30T11:41:17;13.58;51.46
70170;DHT22;57543;45.442;9.212;2024-01-30T11:44:23;14.11;50.18
70170;DHT22;57543;45.442;9.212;2024-01-30T11:47:30;14.70;48.98
70170;DHT22;57543;45.442;9.212;2024-01-30T11:50:34;15.66;46.93
70170;DHT22;57543;45.442;9.212;2024-01-30T11:53:38;17.04;44.01
70170;DHT22;57543;45.442;9.212;2024-01-30T11:56:42;18.38;41.37
70170;DHT22;57543;45.442;9.212;2024-01-30T11:59:45;19.07;39.91
70170;DHT22;57543;45.442;9.212;2024-01-30T12:02:53;19.32;39.54
70170;DHT22;57543;45.442;9.212;2024-01-30T12:06:02;19.07;40.19
70170;DHT22;57543;45.442;9.212;2024-01-30T12:09:06;18.39;41.46
70170;DHT22;57543;45.442;9.212;2024-01-30T12:12:11;17.86;42.20
70170;DHT22;57543;45.442;9.212;2024-01-30T12:15:16;16.91;43.84
70170;DHT22;57543;45.442;9.212;2024-01-30T12:18:20;15.84;46.99
70170;DHT22;57543;45.442;9.212;2024-01-30T12:21:24;15.20;48.63
70170;DHT22;57543;45.442;9.212;2024-01-30T12:24:28;14.63;50.11
70170;DHT22;57543;45.442;9.212;2024-01-30T12:27:39;13.89;51.97
70170;DHT22;57543;45.442;9.212;2024-01-30T12:30:42;13.08;53.75
70170;DHT22;57543;45.442;9.212;2024-01-30T12:33:49;12.57;56.49
70170;DHT22;57543;45.442;9.212;2024-01-30T12:36:52;12.44;56.28
70170;DHT22;57543;45.442;9.212;2024-01-30T12:39:56;12.60;55.87
70170;DHT22;57543;45.442;9.212;2024-01-30T12:43:00;12.67;55.62
70170;DHT22;57543;45.442;9.212;2024-01-30T12:46:04;12.66;55.96
70170;DHT22;57543;45.442;9.212;2024-01-30T12:49:07;12.79;56.06
70170;DHT22;57543;45.442;9.212;2024-01-30T12:52:11;12.72;56.22
70170;DHT22;57543;45.442;9.212;2024-01-30T12:55:15;12.70;56.09
70170;DHT22;57543;45.442;9.212;2024-01-30T12:58:18;12.60;56.43
70170;DHT22;57543;45.442;9.212;2024-01-30T13:01:22;11.28;59.73
70170;DHT22;57543;45.442;9.212;2024-01-30T13:04:27;11.48;60.00
70170;DHT22;57543;45.442;9.212;2024-01-30T13:07:30;11.80;59.49
70170;DHT22;57543;45.442;9.212;2024-01-30T13:10:34;11.89;59.56
70170;DHT22;57543;45.442;9.212;2024-01-30T13:13:37;12.24;59.41
70170;DHT22;57543;45.442;9.212;2024-01-30T13:16:41;12.21;58.76
70170;DHT22;57543;45.442;9.212;2024-01-30T13:19:44;12.63;57.46
70170;DHT22;57543;45.442;9.212;2024-01-30T13:22:48;12.89;56.02
70170;DHT22;57543;45.442;9.212;2024-01-30T13:25:53;13.03;55.71
70170;DHT22;57543;45.442;9.212;2024-01-30T13:28:59;12.99;56.38
70170;DHT22;57543;45.442;9.212;2024-01-30T13:32:03;13.00;56.37
70170;DHT22;57543;45.442;9.212;2024-01-30T13:35:07;13.12;56.17
70170;DHT22;57543;45.442;9.212;2024-01-30T13:38:10;13.10;56.14
70170;DHT22;57543;45.442;9.212;2024-01-30T13:41:13;13.10;56.24
70170;DHT22;57543;45.442;9.212;2024-01-30T13:44:17;13.08;56.42
70170;DHT22;57543;45.442;9.212;2024-01-30T13:47:21;13.17;56.10
70170;DHT22;57543;45.442;9.212;2024-01-30T13:50:25;13.10;56.19
70170;DHT22;57543;45.442;9.212;2024-01-30T13:53:29;12.97;56.55
70170;DHT22;57543;45.442;9.212;2024-01-30T13:56:33;13.07;56.03
70170;DHT22;57543;45.442;9.212;2024-01-30T13:59:38;13.24;55.73
70170;DHT22;57543;45.442;9.212;2024-01-30T14:02:42;13.39;54.96
70170;DHT22;57543;45.442;9.212;2024-01-30T14:05:46;13.52;54.22
70170;DHT22;57543;45.442;9.212;2024-01-30T14:08:50;13.61;53.46
70170;DHT22;57543;45.442;9.212;2024-01-30T14:11:54;13.67;53.68
70170;DHT22;57543;45.442;9.212;2024-01-30T14:14:58;13.62;53.94
70170;DHT22;57543;45.442;9.212;2024-01-30T14:18:04;13.76;53.91
70170;DHT22;57543;45.442;9.212;2024-01-30T14:21:08;13.66;54.70
70170;DHT22;57543;45.442;9.212;2024-01-30T14:24:12;13.77;54.69
70170;DHT22;57543;45.442;9.212;2024-01-30T14:27:15;13.69;54.92
70170;DHT22;57543;45.442;9.212;2024-01-30T14:30:21;13.73;54.93
70170;DHT22;57543;45.442;9.212;2024-01-30T14:33:27;13.52;55.75
70170;DHT22;57543;45.442;9.212;2024-01-30T14:36:31;13.55;55.92
70170;DHT22;57543;45.442;9.212;2024-01-30T14:39:34;13.53;55.36
70170;DHT22;57543;45.442;9.212;2024-01-30T14:42:43;13.38;55.79
70170;DHT22;57543;45.442;9.212;2024-01-30T14:45:47;13.12;56.25
70170;DHT22;57543;45.442;9.212;2024-01-30T14:48:55;13.04;55.24
70170;DHT22;57543;45.442;9.212;2024-01-30T14:52:01;12.89;55.56
70170;DHT22;57543;45.442;9.212;2024-01-30T14:55:07;12.94;55.10
70170;DHT22;57543;45.442;9.212;2024-01-30T14:58:11;12.97;55.69
70170;DHT22;57543;45.442;9.212;2024-01-30T15:01:15;12.89;56.05
70170;DHT22;57543;45.442;9.212;2024-01-30T15:04:19;12.89;56.46
70170;DHT22;57543;45.442;9.212;2024-01-30T15:07:22;12.62;57.25
70170;DHT22;57543;45.442;9.212;2024-01-30T15:10:26;12.27;57.68
70170;DHT22;57543;45.442;9.212;2024-01-30T15:13:30;12.01;58.97
70170;DHT22;57543;45.442;9.212;2024-01-30T15:16:33;12.04;58.53
70170;DHT22;57543;45.442;9.212;2024-01-30T15:19:37;12.18;57.92
70170;DHT22;57543;45.442;9.212;2024-01-30T15:22:41;12.31;57.43
70170;DHT22;57543;45.442;9.212;2024-01-30T15:25:48;12.38;57.37
70170;DHT22;57543;45.442;9.212;2024-01-30T15:28:55;12.22;57.71
70170;DHT22;57543;45.442;9.212;2024-01-30T15:31:59;11.95;58.16
70170;DHT22;57543;45.442;9.212;2024-01-30T15:35:03;11.67;58.85
70170;DHT22;57543;45.442;9.212;2024-01-30T15:38:07;10.96;60.34
70170;DHT22;57543;45.442;9.212;2024-01-30T15:41:31;10.46;62.13
70170;DHT22;57543;45.442;9.212;2024-01-30T15:44:55;10.52;61.94
70170;DHT22;57543;45.442;9.212;2024-01-30T15:48:24;10.39;62.50
70170;DHT22;57543;45.442;9.212;2024-01-30T15:51:52;10.08;63.57
70170;DHT22;57543;45.442;9.212;2024-01-30T15:55:19;10.04;63.82
70170;DHT22;57543;45.442;9.212;2024-01-30T15:58:48;9.96;63.55
70170;DHT22;57543;45.442;9.212;2024-01-30T16:02:19;9.87;63.60
70170;DHT22;57543;45.442;9.212;2024-01-30T16:05:49;9.77;64.04
70170;DHT22;57543;45.442;9.212;2024-01-30T16:09:17;9.56;64.73
70170;DHT22;57543;45.442;9.212;2024-01-30T16:12:46;9.36;65.88
70170;DHT22;57543;45.442;9.212;2024-01-30T16:16:14;9.38;66.04
70170;DHT22;57543;45.442;9.212;2024-01-30T16:19:41;9.18;66.73
70170;DHT22;57543;45.442;9.212;2024-01-30T16:23:11;9.03;67.17
70170;DHT22;57543;45.442;9.212;2024-01-30T16:26:40;8.90;67.86
70170;DHT22;57543;45.442;9.212;2024-01-30T16:30:10;8.72;68.37
70170;DHT22;57543;45.442;9.212;2024-01-30T16:33:39;8.65;69.02
70170;DHT22;57543;45.442;9.212;2024-01-30T16:37:08;8.53;69.66
70170;DHT22;57543;45.442;9.212;2024-01-30T16:40:37;8.38;70.19
70170;DHT22;57543;45.442;9.212;2024-01-30T16:44:07;8.34;70.47
70170;DHT22;57543;45.442;9.212;2024-01-30T16:47:37;8.34;70.75
70170;DHT22;57543;45.442;9.212;2024-01-30T16:51:01;8.35;70.92
70170;DHT22;57543;45.442;9.212;2024-01-30T16:54:29;8.37;71.18
70170;DHT22;57543;45.442;9.212;2024-01-30T16:58:01;8.38;71.39
70170;DHT22;57543;45.442;9.212;2024-01-30T17:01:30;8.35;71.56
70170;DHT22;57543;45.442;9.212;2024-01-30T17:05:00;8.25;71.93
70170;DHT22;57543;45.442;9.212;2024-01-30T17:08:28;8.17;72.30
70170;DHT22;57543;45.442;9.212;2024-01-30T17:11:52;8.00;73.02
70170;DHT22;57543;45.442;9.212;2024-01-30T17:15:20;7.83;73.56
70170;DHT22;57543;45.442;9.212;2024-01-30T17:18:49;7.76;74.01
70170;DHT22;57543;45.442;9.212;2024-01-30T17:22:19;7.82;74.05
70170;DHT22;57543;45.442;9.212;2024-01-30T17:25:49;7.86;74.03
70170;DHT22;57543;45.442;9.212;2024-01-30T17:29:12;7.75;74.37
70170;DHT22;57543;45.442;9.212;2024-01-30T17:32:44;7.78;74.47
70170;DHT22;57543;45.442;9.212;2024-01-30T17:36:13;7.78;74.71
70170;DHT22;57543;45.442;9.212;2024-01-30T17:39:44;7.79;74.86
70170;DHT22;57543;45.442;9.212;2024-01-30T17:43:13;7.69;75.16
70170;DHT22;57543;45.442;9.212;2024-01-30T17:46:42;7.62;75.44
70170;DHT22;57543;45.442;9.212;2024-01-30T17:50:12;7.58;75.90
70170;DHT22;57543;45.442;9.212;2024-01-30T17:53:16;7.55;76.02
70170;DHT22;57543;45.442;9.212;2024-01-30T17:56:23;7.51;76.13
70170;DHT22;57543;45.442;9.212;2024-01-30T17:59:27;7.41;76.15
70170;DHT22;57543;45.442;9.212;2024-01-30T18:02:33;7.43;76.12
70170;DHT22;57543;45.442;9.212;2024-01-30T18:05:36;7.35;76.38
70170;DHT22;57543;45.442;9.212;2024-01-30T18:08:39;7.34;76.75
70170;DHT22;57543;45.442;9.212;2024-01-30T18:11:44;7.18;77.38
70170;DHT22;57543;45.442;9.212;2024-01-30T18:14:49;7.23;77.46
70170;DHT22;57543;45.442;9.212;2024-01-30T18:17:52;7.17;77.55
70170;DHT22;57543;45.442;9.212;2024-01-30T18:20:56;7.17;77.67
70170;DHT22;57543;45.442;9.212;2024-01-30T18:24:00;7.17;77.90
70170;DHT22;57543;45.442;9.212;2024-01-30T18:27:03;7.18;77.94
70170;DHT22;57543;45.442;9.212;2024-01-30T18:30:07;7.18;77.85
70170;DHT22;57543;45.442;9.212;2024-01-30T18:33:11;7.16;77.98
70170;DHT22;57543;45.442;9.212;2024-01-30T18:36:14;7.16;78.01
70170;DHT22;57543;45.442;9.212;2024-01-30T18:39:22;7.13;78.65
70170;DHT22;57543;45.442;9.212;2024-01-30T18:42:29;7.23;78.21
70170;DHT22;57543;45.442;9.212;2024-01-30T18:45:33;7.71;75.64
70170;DHT22;57543;45.442;9.212;2024-01-30T18:48:37;7.83;74.44
70170;DHT22;57543;45.442;9.212;2024-01-30T18:51:41;7.73;73.05
70170;DHT22;57543;45.442;9.212;2024-01-30T18:54:45;7.50;77.41
70170;DHT22;57543;45.442;9.212;2024-01-30T18:57:49;7.17;77.84
70170;DHT22;57543;45.442;9.212;2024-01-30T19:00:53;7.03;78.45
70170;DHT22;57543;45.442;9.212;2024-01-30T19:03:56;7.06;78.41
70170;DHT22;57543;45.442;9.212;2024-01-30T19:06:59;7.01;78.50
70170;DHT22;57543;45.442;9.212;2024-01-30T19:10:03;7.01;78.49
70170;DHT22;57543;45.442;9.212;2024-01-30T19:13:07;6.99;78.54
70170;DHT22;57543;45.442;9.212;2024-01-30T19:16:11;6.89;78.90
70170;DHT22;57543;45.442;9.212;2024-01-30T19:19:15;6.95;78.76
70170;DHT22;57543;45.442;9.212;2024-01-30T19:22:19;6.90;78.90
70170;DHT22;57543;45.442;9.212;2024-01-30T19:25:23;6.79;79.16
70170;DHT22;57543;45.442;9.212;2024-01-30T19:28:27;6.85;78.98
70170;DHT22;57543;45.442;9.212;2024-01-30T19:31:30;6.85;78.72
70170;DHT22;57543;45.442;9.212;2024-01-30T19:34:34;6.79;78.90
70170;DHT22;57543;45.442;9.212;2024-01-30T19:37:38;6.85;79.10
70170;DHT22;57543;45.442;9.212;2024-01-30T19:40:44;6.81;79.55
70170;DHT22;57543;45.442;9.212;2024-01-30T19:43:47;6.81;79.64
70170;DHT22;57543;45.442;9.212;2024-01-30T19:46:51;6.81;79.61
70170;DHT22;57543;45.442;9.212;2024-01-30T19:49:54;6.88;79.53
70170;DHT22;57543;45.442;9.212;2024-01-30T19:52:58;6.92;79.38